Leoma, TN (38468)

8:36 PM CDT on August 22, 2014 (GMT -0500)
WLX Radio Studios | Change Station
CLOSE
Current Station
Personal Weather Station
Location: Lawrenceburg, TN
Elevation: 932 ft
Nearby Weather Stations
Active Advisory: Special Statement

Elev 932 ft 35.25 °N, 87.33 °W | Updated 14 minutes ago

Clear
Clear
83.8 °F
Feels Like 92 °F
N
2.0
Wind Variable Wind from SSW
Gusts 4.0 mph

Today
High -- | Low -- °F
--% Chance of Precip.
Yesterday
High -- | Low -- °F
Precip. -- in
6:14 AM 7:29 PM
Waning Crescent, 6% visible
Pressure 30.00 in
Visibility 9.0 miles
Clouds Clear
Heat Index 92 °F
Dew Point 75 °F
Humidity 75%
Rainfall 0.00 in
Snow Depth Not available.
UV 0 out of 12
Pollen 9.20 out of 12
Air Quality Not available.
Flu Activity Not available.
METAR KMRC 230115Z AUTO 22003KT 9SM CLR 28/24 A3000 RMK

More Conditions Fewer Conditions

Pressure 30.00 in
Visibility 9.0 miles
Clouds Clear
Heat Index 92 °F
Dew Point 75 °F
Humidity 75%
Rainfall 0.00 in
Snow Depth Not available.
UV 0 out of 12
Pollen 9.20 out of 12
Air Quality Not available.
Flu Activity Not available.
METAR KMRC 230115Z AUTO 22003KT 9SM CLR 28/24 A3000 RMK

More Conditions Fewer Conditions

10-Day Weather Forecast

Almanac

Astronomy

Aug. 22, 2014 Rise Set
Actual Time 6:14 AM CDT 7:29 PM CDT
Civil Twilight 5:47 AM CDT 7:55 PM CDT
Nautical Twilight 5:16 AM CDT 8:27 PM CDT
Astronomical Twilight 4:43 AM CDT 9:00 PM CDT
Moon 3:39 AM CDT (8/22) 5:35 PM CDT (8/22)
Length of Visible Light 14h 07m
Length of Day
13h 15m
Tomorrow will be 2m 2s shorter.
Waning Crescent, 6% of the Moon is Illuminated
Today
Waning Crescent
Aug 25
New
Sep 2
First Quarter
Sep 8
Full
Sep 15
Last Quarter

Today's Extremes

State Highs State Lows

Community

WunderPhotos

Upload Photos

1,746,337 photos uploaded!

WunderBlogs® & News

Nearby

Snow Depth

Station Depth Elevation
No new snow has been reported.

Earthquake Activity

City Distance Mag. Time & Date
No recent earthquake activity has been reported nearby.
Minimum magnitude displayed is 2.5.

Coastal Water Temperatures

Place Temperature
No Stations Reporting

Nearby Weather Stations